Garden City, KS

11:14 AM CDT en Agosto 30, 2014 (GMT -0500)
N0KQX | Change Station
CLOSE
Current Station
Estación meteorológica personal
Location: Garden City, KS
Altura: 2839 ft
Estaciones meteorológicas cercanas

Alt 2839 ft 37.97 °N, 100.85 °W | Updated 4 seconds ago

Parcialmente nublado
Parcialmente nublado
82.5 ° F
Sensación térmica 83 ° F
N
0.0
Viento Variable Viento desde ONO
Gusts 0.0 mph

Hoy
Alta -- | Baja -- ° F
--% Posibilidad de precipitaciones
Ayer
Alta -- | Baja -- ° F
Precip. -- pul
7:11 AM 8:15 PM
Creciente, 23% visible
Presión 29.94 pul
Visibilidad 10.0 Millas
Nubes Despejado
Índice de calor 83 ° F
Punto de rocío 60 ° F
Humedad 47%
Precipitaciones 0.00 pul
Espesor de la nieve No disponible.
UV 6 de una escala de 12
Polen 10.90 de una escala de 12
Calidad del aire No disponible.
Flu Activity No disponible.
METAR KGCK 301554Z 20004KT 10SM CLR 26/13 A3004 RMK AO2 SLP137 T02560128

More Conditions Fewer Conditions

Presión 29.94 pul
Visibilidad 10.0 Millas
Nubes Despejado
Índice de calor 83 ° F
Punto de rocío 60 ° F
Humedad 47%
Precipitaciones 0.00 pul
Espesor de la nieve No disponible.
UV 6 de una escala de 12
Polen 10.90 de una escala de 12
Calidad del aire No disponible.
Flu Activity No disponible.
METAR KGCK 301554Z 20004KT 10SM CLR 26/13 A3004 RMK AO2 SLP137 T02560128

More Conditions Fewer Conditions

10-Day Weather Forecast

Almanac

Astronomía

Aug. 30, 2014 Salida Puesta
Hora real 7:11 AM CDT 8:15 PM CDT
Crepúsculo civil 6:44 AM CDT 8:42 PM CDT
Crepúsculo náutico 6:12 AM CDT 9:14 PM CDT
Crepúsculo astronómico 5:38 AM CDT 9:48 PM CDT
Luna 11:55 AM CDT 10:56 PM CDT
Horas de luz 13h 58m
Horas de luz
13h 04m
Tomorrow will be 2m 19s shorter.
Creciente, 23% of the Moon is Illuminated
Hoy
Creciente
Sep 2
Cuarto creciente
Sep 8
Luna llena
Sep 15
Cuarto menguante
Sep 24
Nueva

Extremos de hoy

Máximos del estado Bajos del estado

Community

WunderPhotos

Upload Photos

1,748,556 ¡fotos cargadas!

WunderBlogs® & News

Nearby

Grosos de nieve

Estación Profundido Altura
No tenemos constancia de nieve nueva.

Actividad de terremotos

Ciudad Distance Mag. Tiempo y dato
No hay informes recientes de la actividad sísmica.
Magnitud mínima muestra es 2,5.

Temperaturas de aguas costeras

Lugar Temperatura
Sin partes meteorológicos de las estaciones

Estaciones meteorológicas cercanas